createdAt,value
2022-11-09T00:00:48.447Z,11.05
2022-11-09T00:03:15.560Z,9.90
2022-11-09T00:05:42.681Z,9.82
2022-11-09T00:08:11.116Z,10.02
2022-11-09T00:10:38.770Z,9.57
2022-11-09T00:13:05.543Z,8.95
2022-11-09T00:15:32.424Z,9.48
2022-11-09T00:18:04.810Z,9.35
2022-11-09T00:20:31.591Z,9.52
2022-11-09T00:22:58.554Z,9.00
2022-11-09T00:25:25.358Z,8.82
2022-11-09T00:27:53.308Z,9.90
2022-11-09T00:30:20.209Z,9.88
2022-11-09T00:32:48.070Z,10.32
2022-11-09T00:35:15.145Z,9.10
2022-11-09T00:37:41.927Z,10.05
2022-11-09T00:40:09.699Z,9.50
2022-11-09T00:42:36.534Z,9.52
2022-11-09T00:45:03.577Z,9.30
2022-11-09T00:47:30.296Z,9.63
2022-11-09T00:50:34.171Z,10.90
2022-11-09T00:56:10.304Z,9.43
2022-11-09T00:58:38.542Z,10.77
2022-11-09T01:01:13.967Z,10.50
2022-11-09T01:03:59.576Z,10.95
2022-11-09T01:06:26.844Z,10.95
2022-11-09T01:08:54.029Z,11.73
2022-11-09T01:11:22.511Z,12.18
2022-11-09T01:13:49.422Z,11.43
2022-11-09T01:16:18.899Z,11.60
2022-11-09T01:18:46.030Z,11.50
2022-11-09T01:21:15.420Z,11.43
2022-11-09T01:23:45.333Z,12.30
2022-11-09T01:26:14.055Z,11.38
2022-11-09T01:28:41.502Z,11.13
2022-11-09T01:31:11.979Z,10.98
2022-11-09T01:33:39.277Z,11.63
2022-11-09T01:36:08.671Z,10.75
2022-11-09T01:38:36.636Z,11.25
2022-11-09T01:41:04.358Z,10.57
2022-11-09T01:43:31.419Z,9.73
2022-11-09T01:46:19.528Z,10.63
2022-11-09T01:49:12.999Z,10.10
2022-11-09T01:51:51.080Z,10.82
2022-11-09T01:54:21.996Z,10.50
2022-11-09T01:56:51.748Z,10.25
2022-11-09T01:59:22.560Z,11.05
2022-11-09T02:01:49.999Z,10.90
2022-11-09T02:04:56.387Z,11.07
2022-11-09T02:07:23.446Z,11.88
2022-11-09T02:10:03.380Z,10.85
2022-11-09T02:12:33.928Z,10.88
2022-11-09T02:15:03.813Z,12.73
2022-11-09T02:17:31.090Z,12.48
2022-11-09T02:19:58.913Z,13.07
2022-11-09T02:22:26.334Z,11.75
2022-11-09T02:24:56.277Z,11.77
2022-11-09T02:27:24.252Z,12.65
2022-11-09T02:29:51.987Z,11.15
2022-11-09T02:32:24.833Z,11.57
2022-11-09T02:34:51.589Z,12.27
2022-11-09T02:37:30.347Z,12.88
2022-11-09T02:39:59.189Z,12.57
2022-11-09T02:42:25.967Z,13.10
2022-11-09T02:44:56.785Z,11.93
2022-11-09T02:47:23.594Z,12.95
2022-11-09T02:49:50.477Z,14.98
2022-11-09T02:52:18.204Z,15.10
2022-11-09T02:54:45.179Z,15.20
2022-11-09T02:57:11.961Z,13.00
2022-11-09T02:59:38.728Z,16.90
2022-11-09T03:02:05.508Z,13.88
2022-11-09T03:04:32.349Z,12.25
2022-11-09T03:06:59.176Z,11.70
2022-11-09T03:09:25.951Z,13.10
2022-11-09T03:11:52.714Z,12.63
2022-11-09T03:14:19.534Z,15.82
2022-11-09T03:16:50.249Z,12.77
2022-11-09T03:19:17.417Z,12.65
2022-11-09T03:21:44.189Z,12.77
2022-11-09T03:24:10.979Z,12.73
2022-11-09T03:26:37.731Z,11.43
2022-11-09T03:29:04.581Z,12.63
2022-11-09T03:31:31.341Z,11.82
2022-11-09T03:33:58.384Z,12.63
2022-11-09T03:36:25.358Z,11.93
2022-11-09T03:38:52.051Z,12.18
2022-11-09T03:41:18.874Z,12.80
2022-11-09T03:43:45.576Z,12.52
2022-11-09T03:46:12.308Z,13.55
2022-11-09T03:48:39.028Z,12.88
2022-11-09T03:51:06.025Z,12.98
2022-11-09T03:53:32.855Z,13.85
2022-11-09T03:55:59.626Z,15.00
2022-11-09T03:58:26.438Z,14.02
2022-11-09T04:00:53.213Z,14.57
2022-11-09T04:03:20.155Z,13.88
2022-11-09T04:05:47.097Z,15.15
2022-11-09T04:08:13.871Z,15.02
2022-11-09T04:10:40.637Z,15.45
2022-11-09T04:13:07.441Z,14.43
2022-11-09T04:15:34.488Z,15.75
2022-11-09T04:18:03.794Z,19.02
2022-11-09T04:20:31.605Z,19.15
2022-11-09T04:23:00.445Z,18.05
2022-11-09T04:25:29.108Z,18.27
2022-11-09T04:27:57.661Z,19.33
2022-11-09T04:30:28.036Z,20.35
2022-11-09T04:32:56.209Z,24.60
2022-11-09T04:35:23.411Z,18.85
2022-11-09T04:37:55.201Z,16.67
2022-11-09T04:40:22.492Z,17.63
2022-11-09T04:42:49.446Z,18.02
2022-11-09T04:45:16.483Z,16.70
2022-11-09T04:47:43.462Z,17.27
2022-11-09T04:50:10.968Z,18.00
2022-11-09T04:52:37.859Z,18.42
2022-11-09T04:55:05.365Z,18.67
2022-11-09T04:57:32.208Z,20.20
2022-11-09T04:59:58.949Z,18.52
2022-11-09T05:02:25.789Z,17.75
2022-11-09T05:04:52.538Z,18.75
2022-11-09T05:07:19.361Z,18.48
2022-11-09T05:09:46.163Z,19.13
2022-11-09T05:12:13.343Z,19.20
2022-11-09T05:14:40.288Z,20.13
2022-11-09T05:17:08.754Z,19.40
2022-11-09T05:19:35.735Z,19.63
2022-11-09T05:22:23.011Z,20.02
2022-11-09T05:24:51.876Z,19.60
2022-11-09T05:27:19.017Z,19.27
2022-11-09T05:29:45.843Z,20.40
2022-11-09T05:32:12.619Z,20.35
2022-11-09T05:34:39.322Z,22.10
2022-11-09T05:37:06.260Z,20.35
2022-11-09T05:39:33.077Z,19.67
2022-11-09T05:41:59.935Z,19.23
2022-11-09T05:44:26.709Z,19.02
2022-11-09T05:46:53.624Z,20.48
2022-11-09T05:49:20.379Z,19.48
2022-11-09T05:51:47.193Z,23.50
2022-11-09T05:54:14.155Z,25.13
2022-11-09T05:56:40.894Z,24.50
2022-11-09T05:59:08.653Z,24.05
2022-11-09T06:01:35.468Z,22.83
2022-11-09T06:04:02.445Z,23.60
2022-11-09T06:06:29.996Z,24.63
2022-11-09T06:08:56.867Z,24.45
2022-11-09T06:11:24.603Z,23.80
2022-11-09T06:13:52.716Z,23.67
2022-11-09T06:16:19.493Z,23.98
2022-11-09T06:18:46.371Z,23.58
2022-11-09T06:21:13.396Z,23.60
2022-11-09T06:23:40.254Z,23.75
2022-11-09T06:26:09.993Z,24.10
2022-11-09T06:28:38.571Z,26.25
2022-11-09T06:31:07.237Z,26.08
2022-11-09T06:33:36.177Z,25.58
2022-11-09T06:36:04.075Z,26.13
2022-11-09T06:38:31.420Z,26.80
2022-11-09T06:40:59.505Z,25.55
2022-11-09T06:43:26.809Z,27.15
2022-11-09T06:45:54.558Z,27.27
2022-11-09T06:48:22.522Z,27.58
2022-11-09T06:50:50.803Z,27.98
2022-11-09T06:53:18.831Z,27.80
2022-11-09T06:55:50.610Z,28.33
2022-11-09T06:58:28.035Z,28.90
2022-11-09T07:00:55.111Z,29.08
2022-11-09T07:03:23.291Z,28.27
2022-11-09T07:05:52.283Z,28.35
2022-11-09T07:08:20.024Z,27.40
2022-11-09T07:10:46.891Z,26.15
2022-11-09T07:13:13.648Z,27.13
2022-11-09T07:15:41.081Z,26.88
2022-11-09T07:18:12.803Z,25.92
2022-11-09T07:20:40.017Z,26.23
2022-11-09T07:23:06.882Z,26.55
2022-11-09T07:25:34.593Z,25.77
2022-11-09T07:28:09.259Z,24.98
2022-11-09T07:30:37.041Z,25.67
2022-11-09T07:33:09.984Z,25.10
2022-11-09T07:35:38.102Z,24.17
2022-11-09T07:38:05.423Z,25.50
2022-11-09T07:40:33.719Z,26.33
2022-11-09T07:43:02.121Z,25.10
2022-11-09T07:45:31.089Z,27.13
2022-11-09T07:48:06.904Z,26.80
2022-11-09T07:50:36.169Z,27.80
2022-11-09T07:53:03.871Z,28.13
2022-11-09T07:55:31.154Z,27.33
2022-11-09T07:58:07.939Z,28.65
2022-11-09T08:00:36.566Z,27.30
2022-11-09T08:03:04.637Z,28.38
2022-11-09T08:05:32.093Z,27.77
2022-11-09T08:08:01.655Z,28.90
2022-11-09T08:10:30.295Z,28.08
2022-11-09T08:13:03.487Z,29.13
2022-11-09T08:15:31.376Z,29.10
2022-11-09T08:18:03.707Z,29.63
2022-11-09T08:20:31.137Z,29.77
2022-11-09T08:23:04.570Z,28.73
2022-11-09T08:25:35.927Z,29.38
2022-11-09T08:28:04.058Z,30.02
2022-11-09T08:30:31.422Z,28.55
2022-11-09T08:32:59.943Z,27.83
2022-11-09T08:35:27.426Z,27.63
2022-11-09T08:37:55.027Z,27.48
2022-11-09T08:43:09.394Z,23.98
2022-11-09T08:45:39.018Z,20.08
2022-11-09T08:48:08.667Z,18.05
2022-11-09T08:50:38.438Z,16.63
2022-11-09T08:53:06.798Z,15.32
2022-11-09T08:55:34.341Z,15.05
2022-11-09T08:58:02.977Z,13.98
2022-11-09T09:00:30.535Z,13.90
2022-11-09T09:03:00.545Z,16.73
2022-11-09T09:05:30.099Z,18.27
2022-11-09T09:07:58.999Z,18.77
2022-11-09T09:10:26.876Z,25.50
2022-11-09T09:12:54.067Z,21.33
2022-11-09T09:18:03.842Z,20.15
2022-11-09T09:20:32.271Z,19.15
2022-11-09T09:23:00.476Z,19.45
2022-11-09T09:25:27.993Z,20.30
2022-11-09T09:27:55.076Z,21.95
2022-11-09T09:30:24.703Z,21.75
2022-11-09T09:32:51.799Z,22.80
2022-11-09T09:35:18.581Z,22.15
2022-11-09T09:37:45.412Z,21.23
2022-11-09T09:40:25.783Z,21.13
2022-11-09T09:42:54.227Z,21.58
2022-11-09T09:45:28.785Z,21.30
2022-11-09T09:48:28.927Z,49.47
2022-11-09T09:51:02.893Z,23.55
2022-11-09T09:53:37.815Z,23.00
2022-11-09T09:56:44.408Z,23.00
2022-11-09T09:59:35.403Z,23.27
2022-11-09T10:02:03.943Z,22.48
2022-11-09T10:04:40.738Z,23.55
2022-11-09T10:07:27.198Z,22.90
2022-11-09T10:10:26.041Z,22.73
2022-11-09T10:13:11.578Z,22.63
2022-11-09T10:15:50.024Z,24.30
2022-11-09T10:18:46.189Z,21.83
2022-11-09T10:21:48.999Z,23.38
2022-11-09T10:24:36.906Z,23.02
2022-11-09T10:27:34.467Z,24.55
2022-11-09T10:30:03.274Z,27.73
2022-11-09T10:32:33.008Z,26.17
2022-11-09T10:35:13.943Z,25.67
2022-11-09T10:37:46.775Z,24.67
2022-11-09T10:40:25.167Z,125.40
2022-11-09T10:42:58.954Z,27.00
2022-11-09T10:45:25.788Z,24.70
2022-11-09T10:47:52.986Z,24.98
2022-11-09T10:50:40.519Z,25.05
2022-11-09T10:53:27.370Z,24.98
2022-11-09T10:56:06.352Z,25.42
2022-11-09T10:58:35.371Z,27.98
2022-11-09T11:01:18.535Z,32.63
2022-11-09T11:03:54.540Z,28.48
2022-11-09T11:06:31.986Z,25.83
2022-11-09T11:09:11.423Z,25.95
2022-11-09T11:11:39.737Z,25.02
2022-11-09T11:14:32.388Z,25.33
2022-11-09T11:16:59.321Z,24.83
2022-11-09T11:19:26.113Z,25.10
2022-11-09T11:22:20.156Z,24.98
2022-11-09T11:25:01.410Z,25.95
2022-11-09T11:27:51.109Z,25.90
2022-11-09T11:33:20.656Z,27.17
2022-11-09T11:36:19.385Z,26.73
2022-11-09T11:38:57.802Z,28.98
2022-11-09T11:41:42.709Z,29.67
2022-11-09T11:44:21.770Z,28.33
2022-11-09T11:47:01.498Z,29.65
2022-11-09T11:50:11.124Z,30.58
2022-11-09T11:53:03.564Z,31.30
2022-11-09T11:55:39.118Z,32.20
2022-11-09T11:58:12.055Z,30.67
2022-11-09T12:00:52.954Z,31.25
2022-11-09T12:03:50.589Z,30.95
2022-11-09T12:06:53.950Z,31.00
2022-11-09T12:09:26.499Z,30.77
2022-11-09T12:12:07.696Z,30.85
2022-11-09T12:14:43.741Z,31.20
2022-11-09T12:17:46.063Z,32.88
2022-11-09T12:20:31.408Z,32.78
2022-11-09T12:23:31.651Z,35.25
2022-11-09T12:26:01.536Z,34.35
2022-11-09T12:28:34.641Z,35.67
2022-11-09T12:31:11.671Z,34.75
2022-11-09T12:33:44.649Z,34.55
2022-11-09T12:36:20.617Z,36.15
2022-11-09T12:39:16.138Z,34.53
2022-11-09T12:41:44.537Z,34.03
2022-11-09T12:44:29.674Z,34.15
2022-11-09T12:47:15.372Z,35.67
2022-11-09T12:49:45.717Z,34.45
2022-11-09T12:52:15.681Z,35.90
2022-11-09T12:54:49.002Z,36.05
2022-11-09T12:57:26.128Z,35.80
2022-11-09T12:59:58.537Z,35.58
2022-11-09T13:02:42.857Z,35.05
2022-11-09T13:05:32.905Z,35.42
2022-11-09T13:08:05.252Z,37.33
2022-11-09T13:10:37.567Z,44.75
2022-11-09T13:13:16.929Z,37.28
2022-11-09T13:16:04.487Z,43.25
2022-11-09T13:18:35.442Z,41.97
2022-11-09T13:21:21.583Z,40.35
2022-11-09T13:24:01.307Z,39.42
2022-11-09T13:26:32.463Z,40.17
2022-11-09T13:29:09.943Z,40.70
2022-11-09T13:32:11.045Z,39.83
2022-11-09T13:34:55.975Z,40.30
2022-11-09T13:37:41.060Z,39.67
2022-11-09T13:40:33.357Z,38.67
2022-11-09T13:45:52.837Z,41.00
2022-11-09T13:48:40.849Z,40.97
2022-11-09T13:51:12.876Z,42.70
2022-11-09T13:56:37.911Z,41.63
2022-11-09T13:59:37.158Z,41.13
2022-11-09T14:02:16.182Z,41.80
2022-11-09T14:04:53.807Z,43.72
2022-11-09T14:07:24.046Z,43.42
2022-11-09T14:10:01.750Z,45.42
2022-11-09T14:12:55.123Z,43.95
2022-11-09T14:15:51.234Z,42.78
2022-11-09T14:19:06.528Z,41.55
2022-11-09T14:21:36.175Z,44.25
2022-11-09T14:24:17.429Z,44.75
2022-11-09T14:27:19.197Z,45.97
2022-11-09T14:29:57.803Z,44.28
2022-11-09T14:32:38.473Z,47.50
2022-11-09T14:35:26.337Z,45.20
2022-11-09T14:37:55.059Z,44.03
2022-11-09T14:40:24.632Z,43.72
2022-11-09T14:43:20.569Z,40.15
2022-11-09T14:45:53.613Z,40.03
2022-11-09T14:48:22.314Z,39.67
2022-11-09T14:50:52.219Z,39.85
2022-11-09T14:53:33.953Z,39.53
2022-11-09T14:56:23.377Z,38.13
2022-11-09T14:58:51.552Z,39.72
2022-11-09T15:01:20.118Z,40.92
2022-11-09T15:04:17.678Z,45.38
2022-11-09T15:06:50.245Z,119.72
2022-11-09T15:09:20.563Z,51.40
2022-11-09T15:11:48.524Z,44.22
2022-11-09T15:14:25.352Z,46.50
2022-11-09T15:17:07.412Z,49.10
2022-11-09T15:19:39.332Z,49.63
2022-11-09T15:22:06.338Z,52.22
2022-11-09T15:24:47.720Z,48.25
2022-11-09T15:28:08.883Z,47.17
2022-11-09T15:30:55.602Z,50.40
2022-11-09T15:36:33.498Z,53.95
2022-11-09T15:42:02.796Z,86.30
2022-11-09T15:44:30.021Z,66.32
2022-11-09T15:46:57.150Z,66.40
2022-11-09T15:49:29.679Z,57.97
2022-11-09T15:51:57.362Z,52.72
2022-11-09T15:54:24.646Z,51.45
2022-11-09T15:56:52.207Z,51.17
2022-11-09T15:59:27.963Z,53.42
2022-11-09T16:01:55.143Z,49.40
2022-11-09T16:04:23.482Z,51.45
2022-11-09T16:06:50.360Z,54.13
2022-11-09T16:09:18.234Z,60.25
2022-11-09T16:11:48.689Z,55.00
2022-11-09T16:14:27.710Z,57.58
2022-11-09T16:16:56.071Z,58.20
2022-11-09T16:19:22.897Z,58.97
2022-11-09T16:21:53.726Z,57.47
2022-11-09T16:27:17.094Z,58.22
2022-11-09T16:30:01.258Z,59.38
2022-11-09T16:37:56.989Z,62.05
2022-11-09T16:43:05.649Z,57.30
2022-11-09T16:45:33.930Z,59.40
2022-11-09T16:48:04.609Z,58.58
2022-11-09T16:50:31.708Z,50.95
2022-11-09T16:52:59.412Z,50.75
2022-11-09T16:55:27.942Z,50.47
2022-11-09T16:57:55.077Z,52.40
2022-11-09T17:00:33.752Z,48.83
2022-11-09T17:03:12.279Z,48.38
2022-11-09T17:05:40.369Z,48.28
2022-11-09T17:08:07.925Z,52.85
2022-11-09T17:10:41.859Z,60.72
2022-11-09T17:13:09.795Z,57.97
2022-11-09T17:15:42.442Z,48.75
2022-11-09T17:18:10.351Z,42.95
2022-11-09T17:20:50.615Z,37.38
2022-11-09T17:34:48.992Z,24.05
2022-11-09T17:37:24.824Z,23.27
2022-11-09T17:39:53.902Z,22.92
2022-11-09T17:42:21.028Z,22.98
2022-11-09T17:45:04.913Z,21.52
2022-11-09T17:50:15.224Z,23.40
2022-11-09T17:55:34.154Z,25.13
2022-11-09T18:01:17.864Z,31.92
2022-11-09T18:03:51.559Z,34.97
2022-11-09T18:06:29.740Z,33.83
2022-11-09T18:12:10.775Z,32.95
2022-11-09T18:20:17.106Z,27.10
2022-11-09T18:22:44.095Z,26.55
2022-11-09T18:25:12.058Z,26.33
2022-11-09T18:27:39.428Z,25.65
2022-11-09T18:30:07.486Z,26.55
2022-11-09T18:32:34.573Z,23.23
2022-11-09T18:35:02.950Z,25.65
2022-11-09T18:37:33.367Z,25.40
2022-11-09T18:40:13.224Z,27.17
2022-11-09T18:42:42.459Z,29.85
2022-11-09T18:45:10.875Z,30.98
2022-11-09T18:50:42.108Z,31.00
2022-11-09T18:53:08.945Z,31.98
2022-11-09T18:55:36.203Z,35.85
2022-11-09T18:58:03.303Z,35.22
2022-11-09T19:00:41.512Z,33.20
2022-11-09T19:03:24.821Z,35.88
2022-11-09T19:05:52.501Z,33.45
2022-11-09T19:11:24.574Z,33.80
2022-11-09T19:13:53.997Z,35.17
2022-11-09T19:19:03.987Z,39.50
2022-11-09T19:21:43.280Z,41.17
2022-11-09T19:24:15.204Z,43.85
2022-11-09T19:26:42.083Z,46.95
2022-11-09T19:29:10.950Z,49.40
2022-11-09T19:31:43.061Z,51.10
2022-11-09T19:34:18.643Z,53.03
2022-11-09T19:36:46.054Z,50.08
2022-11-09T19:39:14.813Z,52.90
2022-11-09T19:41:42.671Z,56.70
2022-11-09T19:44:13.886Z,57.33
2022-11-09T19:54:58.751Z,57.53
2022-11-09T19:57:25.970Z,57.28
2022-11-09T20:08:20.388Z,58.20
2022-11-09T20:13:31.331Z,58.03
2022-11-09T20:16:07.398Z,58.58
2022-11-09T20:18:45.386Z,57.70
2022-11-09T20:44:50.618Z,49.17
2022-11-09T20:47:42.078Z,48.90
2022-11-09T20:50:11.739Z,45.75
2022-11-09T20:52:51.813Z,47.25
2022-11-09T20:55:22.775Z,47.22
2022-11-09T20:57:49.681Z,44.67
2022-11-09T21:00:24.170Z,44.63
2022-11-09T21:03:01.020Z,45.53
2022-11-09T21:05:36.317Z,42.95
2022-11-09T21:08:03.311Z,42.95
2022-11-09T21:10:38.583Z,45.90
2022-11-09T21:13:08.421Z,44.83
2022-11-09T21:15:45.304Z,41.55
2022-11-09T21:20:58.913Z,42.83
2022-11-09T21:27:11.651Z,42.50
2022-11-09T21:30:04.156Z,43.58
2022-11-09T21:32:32.496Z,41.70
2022-11-09T21:37:43.783Z,39.85
2022-11-09T21:40:12.053Z,38.92
2022-11-09T21:45:28.018Z,37.75
2022-11-09T21:47:59.894Z,38.55
2022-11-09T21:50:27.015Z,37.42
2022-11-09T21:52:54.462Z,36.47
2022-11-09T21:55:21.420Z,37.90
2022-11-09T21:57:49.879Z,39.60
2022-11-09T22:00:17.583Z,37.78
2022-11-09T22:02:50.253Z,40.38
2022-11-09T22:05:22.925Z,39.25
2022-11-09T22:07:50.157Z,44.13
2022-11-09T22:10:17.283Z,48.42
2022-11-09T22:16:04.585Z,46.15
2022-11-09T22:18:50.922Z,44.15
2022-11-09T22:21:18.642Z,46.70
2022-11-09T22:23:45.928Z,48.20
2022-11-09T22:26:13.031Z,49.25
2022-11-09T22:28:39.843Z,49.22
2022-11-09T22:31:09.314Z,50.53
2022-11-09T22:33:36.816Z,50.05
2022-11-09T22:36:06.956Z,52.22
2022-11-09T22:38:35.805Z,51.80
2022-11-09T22:41:05.674Z,53.22
2022-11-09T22:43:34.919Z,53.50
2022-11-09T22:46:10.174Z,57.85
2022-11-09T22:48:37.733Z,65.32
2022-11-09T22:51:05.433Z,76.50
2022-11-09T22:53:33.152Z,85.85
2022-11-09T22:56:02.233Z,77.20
2022-11-09T22:58:29.974Z,74.30
2022-11-09T23:01:05.757Z,76.20
2022-11-09T23:03:32.779Z,71.80
2022-11-09T23:06:12.502Z,74.43
2022-11-09T23:08:39.676Z,65.90
2022-11-09T23:11:08.545Z,61.95
2022-11-09T23:13:35.455Z,64.97
2022-11-09T23:16:08.634Z,71.57
2022-11-09T23:21:41.691Z,69.60
2022-11-09T23:24:31.909Z,71.05
2022-11-09T23:26:59.028Z,73.35
2022-11-09T23:29:25.901Z,78.60
2022-11-09T23:31:55.213Z,88.03
2022-11-09T23:34:22.055Z,91.10
2022-11-09T23:36:49.127Z,88.75
2022-11-09T23:39:16.123Z,87.72
2022-11-09T23:41:43.153Z,84.85
2022-11-09T23:44:10.074Z,84.78
2022-11-09T23:46:37.154Z,89.32
2022-11-09T23:49:05.465Z,95.50
2022-11-09T23:51:32.279Z,93.60
2022-11-09T23:53:58.998Z,85.85
2022-11-09T23:56:25.782Z,86.07
2022-11-09T23:58:52.555Z,85.68
